Time;durP1;ratioP1;P1;durP2;ratioP2;P2;SDS_P1;SDS_P2;PMS_P1;PMS_P2;Temp;Humidity;BMP_temperature;BMP_pressure;BME280_temperature;BME280_humidity;BME280_pressure;Samples;Min_cycle;Max_cycle;Signal;HPM_P1;HPM_P2
2023/04/10 00:01:34;;;;;;;;;;;;;;;;;;5074736;28;19919;-72
2023/04/10 00:04:37;;;;;;;;;;;;;;;;;;5074078;28;19923;-72
2023/04/10 00:07:40;;;;;;;;;;;;;;;;;;5074548;28;19958;-72
2023/04/10 00:10:43;;;;;;;;;;;;;;;;;;5074618;28;20320;-72
2023/04/10 00:13:45;;;;;;;;;;;;;;;;;;5074487;28;19966;-72
2023/04/10 00:16:48;;;;;;;;;;;;;;;;;;5074450;28;19920;-72
2023/04/10 00:19:51;;;;;;;;;;;;;;;;;;5074458;28;19920;-71
2023/04/10 00:22:54;;;;;;;;;;;;;;;;;;5074216;28;20285;-72
2023/04/10 00:25:57;;;;;;;;;;;;;;;;;;5074540;28;19920;-72
2023/04/10 00:28:59;;;;;;;;;;;;;;;;;;5074294;28;19986;-72
2023/04/10 00:32:02;;;;;;;;;;;;;;;;;;5061711;28;20066;-72
2023/04/10 00:35:05;;;;;;;;;;;;;;;;;;5061689;28;19970;-74
2023/04/10 00:38:07;;;;;;;;;;;;;;;;;;5074562;28;19966;-74
2023/04/10 00:41:10;;;;;;;;;;;;;;;;;;5073929;28;19919;-74
2023/04/10 00:44:13;;;;;;;;;;;;;;;;;;5084799;28;19958;-74
2023/04/10 00:47:16;;;;;;;;;;;;;;;;;;5073989;28;19923;-73
2023/04/10 00:50:19;;;;;;;;;;;;;;;;;;5073883;28;19923;-74
2023/04/10 00:53:22;;;;;;;;;;;;;;;;;;5073725;28;19919;-74
2023/04/10 00:56:24;;;;;;;;;;;;;;;;;;5073762;28;19924;-74
2023/04/10 00:59:27;;;;;;;;;;;;;;;;;;5073747;28;19927;-73
2023/04/10 01:02:31;;;;;;;;;;;;;;;;;;5073506;28;19931;-73
2023/04/10 01:05:33;;;;;;;;;;;;;;;;;;5061185;28;19966;-73
2023/04/10 01:08:36;;;;;;;;;;;;;;;;;;5061141;28;20042;-73
2023/04/10 01:11:39;;;;;;;;;;;;;;;;;;5073556;28;19924;-73
2023/04/10 01:14:42;;;;;;;;;;;;;;;;;;5073223;28;19923;-73
2023/04/10 01:17:45;;;;;;;;;;;;;;;;;;5061017;28;20437;-73
2023/04/10 01:20:47;;;;;;;;;;;;;;;;;;5060958;28;20284;-73
2023/04/10 01:23:50;;;;;;;;;;;;;;;;;;5060805;28;20344;-74
2023/04/10 01:26:53;;;;;;;;;;;;;;;;;;5073375;28;20296;-74
2023/04/10 01:29:56;;;;;;;;;;;;;;;;;;5060929;28;19965;-73
2023/04/10 01:32:59;;;;;;;;;;;;;;;;;;5073139;28;19970;-73
2023/04/10 01:36:02;;;;;;;;;;;;;;;;;;5073271;28;19923;-73
2023/04/10 01:39:05;;;;;;;;;;;;;;;;;;5060870;28;20438;-73
2023/04/10 01:42:08;;;;;;;;;;;;;;;;;;5073233;28;20395;-73
2023/04/10 01:45:13;;;;;;;;;;;;;;;;;;5060604;28;19919;-73
2023/04/10 01:48:17;;;;;;;;;;;;;;;;;;5060705;28;19920;-73
2023/04/10 01:51:20;;;;;;;;;;;;;;;;;;5060641;28;19974;-73
2023/04/10 01:54:23;;;;;;;;;;;;;;;;;;5060614;28;20055;-73
2023/04/10 01:57:26;;;;;;;;;;;;;;;;;;5060769;28;20015;-74
2023/04/10 02:00:31;;;;;;;;;;;;;;;;;;5060458;28;20419;-74
2023/04/10 02:03:34;;;;;;;;;;;;;;;;;;5072837;28;20003;-74
2023/04/10 02:06:37;;;;;;;;;;;;;;;;;;5060521;28;19965;-74
2023/04/10 02:09:40;;;;;;;;;;;;;;;;;;5060489;28;19971;-73
2023/04/10 02:12:43;;;;;;;;;;;;;;;;;;5060466;28;19918;-73
2023/04/10 02:15:46;;;;;;;;;;;;;;;;;;5072672;28;19923;-74
2023/04/10 02:18:49;;;;;;;;;;;;;;;;;;5060468;28;19924;-73
2023/04/10 02:21:52;;;;;;;;;;;;;;;;;;5072806;28;19947;-73
2023/04/10 02:24:55;;;;;;;;;;;;;;;;;;5072690;28;19919;-73
2023/04/10 02:27:58;;;;;;;;;;;;;;;;;;5074478;28;20012;-74
2023/04/10 02:31:01;;;;;;;;;;;;;;;;;;5076730;28;19958;-74
2023/04/10 02:34:04;;;;;;;;;;;;;;;;;;5076453;28;20296;-74
2023/04/10 02:37:06;;;;;;;;;;;;;;;;;;5076837;28;19919;-73
2023/04/10 02:40:10;;;;;;;;;;;;;;;;;;5063943;28;19919;-73
2023/04/10 02:43:23;;;;;;;;;;;;;;;;;;5064002;28;19919;-73
2023/04/10 02:46:26;;;;;;;;;;;;;;;;;;5063678;28;19923;-74
2023/04/10 02:49:29;;;;;;;;;;;;;;;;;;5063734;28;20018;-73
2023/04/10 02:52:33;;;;;;;;;;;;;;;;;;5063778;28;19920;-73
2023/04/10 02:55:36;;;;;;;;;;;;;;;;;;5063634;28;19948;-73
2023/04/10 02:58:39;;;;;;;;;;;;;;;;;;5063450;28;20399;-73
2023/04/10 03:01:41;;;;;;;;;;;;;;;;;;5063548;28;20383;-73
2023/04/10 03:04:44;;;;;;;;;;;;;;;;;;5063473;28;20386;-73
2023/04/10 03:07:47;;;;;;;;;;;;;;;;;;5063449;28;20441;-73
2023/04/10 03:10:50;;;;;;;;;;;;;;;;;;5063404;28;19919;-73
2023/04/10 03:13:53;;;;;;;;;;;;;;;;;;5075604;28;19919;-73
2023/04/10 03:16:56;;;;;;;;;;;;;;;;;;5075692;28;20403;-73
2023/04/10 03:19:59;;;;;;;;;;;;;;;;;;5063221;28;19920;-73
2023/04/10 03:23:02;;;;;;;;;;;;;;;;;;5075713;28;20003;-73
2023/04/10 03:26:05;;;;;;;;;;;;;;;;;;5063115;28;19958;-73
2023/04/10 03:29:17;;;;;;;;;;;;;;;;;;5062901;28;20054;-73
2023/04/10 03:32:20;;;;;;;;;;;;;;;;;;5062983;28;19966;-73
2023/04/10 03:35:23;;;;;;;;;;;;;;;;;;5062858;28;19923;-73
2023/04/10 03:38:26;;;;;;;;;;;;;;;;;;5086130;28;19955;-73
2023/04/10 03:41:29;;;;;;;;;;;;;;;;;;5062888;28;19999;-73
2023/04/10 03:44:34;;;;;;;;;;;;;;;;;;5062841;28;20296;-73
2023/04/10 03:47:38;;;;;;;;;;;;;;;;;;5063010;28;20334;-73
2023/04/10 03:50:43;;;;;;;;;;;;;;;;;;5062582;28;19919;-73
2023/04/10 03:53:46;;;;;;;;;;;;;;;;;;5062835;28;19974;-73
2023/04/10 03:56:51;;;;;;;;;;;;;;;;;;5074949;28;19974;-73
2023/04/10 03:59:55;;;;;;;;;;;;;;;;;;5062515;28;19974;-73
2023/04/10 04:02:59;;;;;;;;;;;;;;;;;;5062748;28;20443;-73
2023/04/10 04:06:26;;;;;;;;;;;;;;;;;;5074919;28;19920;-73
2023/04/10 04:10:20;;;;;;;;;;;;;;;;;;5074958;28;20025;-73
2023/04/10 04:13:36;;;;;;;;;;;;;;;;;;5062112;28;19935;-73
2023/04/10 04:16:50;;;;;;;;;;;;;;;;;;5062061;28;19958;-74
2023/04/10 04:20:11;;;;;;;;;;;;;;;;;;5082916;28;19919;-73
2023/04/10 04:23:17;;;;;;;;;;;;;;;;;;5084767;28;19967;-74
2023/04/10 04:26:39;;;;;;;;;;;;;;;;;;5074243;28;19920;-74
2023/04/10 04:30:09;;;;;;;;;;;;;;;;;;5062102;28;19944;-74
2023/04/10 04:33:23;;;;;;;;;;;;;;;;;;5061890;28;19966;-74
2023/04/10 04:36:38;;;;;;;;;;;;;;;;;;5061720;28;19970;-73
2023/04/10 04:39:55;;;;;;;;;;;;;;;;;;5061755;28;19920;-73
2023/04/10 04:42:58;;;;;;;;;;;;;;;;;;5074037;28;19919;-73
2023/04/10 04:46:15;;;;;;;;;;;;;;;;;;5074124;28;20289;-73
2023/04/10 04:49:53;;;;;;;;;;;;;;;;;;5084241;28;20013;-74
2023/04/10 04:53:25;;;;;;;;;;;;;;;;;;5059859;28;19966;-74
2023/04/10 04:56:42;;;;;;;;;;;;;;;;;;5083773;28;19938;-73
2023/04/10 04:59:59;;;;;;;;;;;;;;;;;;5061358;28;19971;-73
2023/04/10 05:03:21;;;;;;;;;;;;;;;;;;5073620;28;19919;-73
2023/04/10 05:06:56;;;;;;;;;;;;;;;;;;5061201;28;20387;-72
2023/04/10 05:10:31;;;;;;;;;;;;;;;;;;5073877;28;20434;-73
2023/04/10 05:13:51;;;;;;;;;;;;;;;;;;5061105;28;20411;-73
2023/04/10 05:17:13;;;;;;;;;;;;;;;;;;5073379;28;20010;-73
2023/04/10 05:20:31;;;;;;;;;;;;;;;;;;5073427;28;19936;-73
2023/04/10 05:24:03;;;;;;;;;;;;;;;;;;5046976;28;19919;-74
2023/04/10 05:27:21;;;;;;;;;;;;;;;;;;5073623;28;19941;-74
2023/04/10 05:30:30;;;;;;;;;;;;;;;;;;5073301;28;19958;-74
2023/04/10 05:34:05;;;;;;;;;;;;;;;;;;5073210;28;20284;-74
2023/04/10 05:37:30;;;;;;;;;;;;;;;;;;5073271;28;20398;-74
2023/04/10 05:40:56;;;;;;;;;;;;;;;;;;5073230;28;19919;-73
2023/04/10 05:44:13;;;;;;;;;;;;;;;;;;5073526;28;20351;-74
2023/04/10 05:47:35;;;;;;;;;;;;;;;;;;5073397;28;19994;-73
2023/04/10 05:50:54;;;;;;;;;;;;;;;;;;5083851;28;20014;-73
2023/04/10 05:54:21;;;;;;;;;;;;;;;;;;5072993;28;19924;-73
2023/04/10 05:57:43;;;;;;;;;;;;;;;;;;5057238;28;20336;-73
2023/04/10 06:01:05;;;;;;;;;;;;;;;;;;5081376;28;19970;-73
2023/04/10 06:04:28;;;;;;;;;;;;;;;;;;5087924;28;19920;-73
2023/04/10 06:07:33;;;;;;;;;;;;;;;;;;5064573;28;19966;-73
2023/04/10 06:10:36;;;;;;;;;;;;;;;;;;5064635;28;19919;-73
2023/04/10 06:13:39;;;;;;;;;;;;;;;;;;5064903;28;20009;-73
2023/04/10 06:16:42;;;;;;;;;;;;;;;;;;5087569;28;19939;-73
2023/04/10 06:19:46;;;;;;;;;;;;;;;;;;5064716;28;19958;-73
2023/04/10 06:22:49;;;;;;;;;;;;;;;;;;5077030;28;19977;-73
2023/04/10 06:25:52;;;;;;;;;;;;;;;;;;5087758;28;19939;-73
2023/04/10 06:28:56;;;;;;;;;;;;;;;;;;5076759;28;19919;-73
2023/04/10 06:32:00;;;;;;;;;;;;;;;;;;5076903;28;20035;-72
2023/04/10 06:35:04;;;;;;;;;;;;;;;;;;5087247;28;20048;-73
2023/04/10 06:38:08;;;;;;;;;;;;;;;;;;5087600;28;20403;-72
2023/04/10 06:41:11;;;;;;;;;;;;;;;;;;5076184;28;19981;-73
2023/04/10 06:44:15;;;;;;;;;;;;;;;;;;5076545;28;19939;-72
2023/04/10 06:47:18;;;;;;;;;;;;;;;;;;5064115;28;19920;-73
2023/04/10 06:50:23;;;;;;;;;;;;;;;;;;5076440;28;19935;-72
2023/04/10 06:53:27;;;;;;;;;;;;;;;;;;5076195;28;19920;-71
2023/04/10 06:56:30;;;;;;;;;;;;;;;;;;5076189;28;19943;-72
2023/04/10 06:59:34;;;;;;;;;;;;;;;;;;5075631;28;19943;-71
2023/04/10 07:02:37;;;;;;;;;;;;;;;;;;5075737;28;19966;-71
2023/04/10 07:05:41;;;;;;;;;;;;;;;;;;5075948;28;20337;-72
2023/04/10 07:08:44;;;;;;;;;;;;;;;;;;5075565;28;20025;-72
2023/04/10 07:11:47;;;;;;;;;;;;;;;;;;5075649;28;19919;-71
2023/04/10 07:14:49;;;;;;;;;;;;;;;;;;5074676;28;19974;-72
2023/04/10 07:17:52;;;;;;;;;;;;;;;;;;5073495;28;19920;-71
2023/04/10 07:21:02;;;;;;;;;;;;;;;;;;5075448;28;19920;-70
2023/04/10 07:24:06;;;;;;;;;;;;;;;;;;5075346;28;19919;-70
2023/04/10 07:27:09;;;;;;;;;;;;;;;;;;5074937;28;20446;-71
2023/04/10 07:30:12;;;;;;;;;;;;;;;;;;5075339;28;19969;-71
2023/04/10 07:33:15;;;;;;;;;;;;;;;;;;5075342;28;19934;-70
2023/04/10 07:36:18;;;;;;;;;;;;;;;;;;5075253;28;19923;-72
2023/04/10 07:39:21;;;;;;;;;;;;;;;;;;5075264;28;19920;-72
2023/04/10 07:42:24;;;;;;;;;;;;;;;;;;5074843;28;19924;-71
2023/04/10 07:45:27;;;;;;;;;;;;;;;;;;5075100;28;19935;-71
2023/04/10 07:48:30;;;;;;;;;;;;;;;;;;5075093;28;20416;-72
2023/04/10 07:51:34;;;;;;;;;;;;;;;;;;5073676;28;20008;-72
2023/04/10 07:54:37;;;;;;;;;;;;;;;;;;5073924;28;20479;-72
2023/04/10 07:57:40;;;;;;;;;;;;;;;;;;5074035;28;19919;-73
2023/04/10 08:00:45;;;;;;;;;;;;;;;;;;5074616;28;19970;-68
2023/04/10 08:03:49;;;;;;;;;;;;;;;;;;5074991;28;20006;-74
2023/04/10 08:06:52;;;;;;;;;;;;;;;;;;5074610;28;19923;-71
2023/04/10 08:09:55;;;;;;;;;;;;;;;;;;5074605;28;19918;-71
2023/04/10 08:12:59;;;;;;;;;;;;;;;;;;5074834;28;19935;-72
2023/04/10 08:16:02;;;;;;;;;;;;;;;;;;5074416;28;20027;-71
2023/04/10 08:19:06;;;;;;;;;;;;;;;;;;5074461;28;20013;-71
2023/04/10 08:22:09;;;;;;;;;;;;;;;;;;5074434;28;19966;-73
2023/04/10 08:25:12;;;;;;;;;;;;;;;;;;5073679;28;19962;-71
2023/04/10 08:28:15;;;;;;;;;;;;;;;;;;5074237;28;19919;-72
2023/04/10 08:31:18;;;;;;;;;;;;;;;;;;5074528;28;19965;-72
2023/04/10 08:34:23;;;;;;;;;;;;;;;;;;5074147;28;19966;-71
2023/04/10 08:37:25;;;;;;;;;;;;;;;;;;5074199;28;19935;-71
2023/04/10 08:40:28;;;;;;;;;;;;;;;;;;5074363;28;19997;-71
2023/04/10 08:43:33;;;;;;;;;;;;;;;;;;5073926;28;20012;-70
2023/04/10 08:46:36;;;;;;;;;;;;;;;;;;5074232;28;20387;-70
2023/04/10 08:49:39;;;;;;;;;;;;;;;;;;5073967;28;19968;-72
2023/04/10 08:52:42;;;;;;;;;;;;;;;;;;5074081;28;19955;-71
2023/04/10 08:55:45;;;;;;;;;;;;;;;;;;5073778;28;20021;-71
2023/04/10 08:58:48;;;;;;;;;;;;;;;;;;5073452;28;19928;-72
2023/04/10 09:01:52;;;;;;;;;;;;;;;;;;5073354;28;19924;-71
2023/04/10 09:04:55;;;;;;;;;;;;;;;;;;5073942;28;19919;-71
2023/04/10 09:07:57;;;;;;;;;;;;;;;;;;5073558;28;19957;-71
2023/04/10 09:11:01;;;;;;;;;;;;;;;;;;5073608;28;19919;-71
2023/04/10 09:14:04;;;;;;;;;;;;;;;;;;5073756;28;20002;-71
2023/04/10 09:17:07;;;;;;;;;;;;;;;;;;5073466;28;19995;-71
2023/04/10 09:20:10;;;;;;;;;;;;;;;;;;5073494;28;19966;-71
2023/04/10 09:23:13;;;;;;;;;;;;;;;;;;5073302;28;19958;-71
2023/04/10 09:26:16;;;;;;;;;;;;;;;;;;5073380;28;20289;-72
2023/04/10 09:29:18;;;;;;;;;;;;;;;;;;5073250;28;20011;-77
2023/04/10 09:32:21;;;;;;;;;;;;;;;;;;5073598;28;19966;-71
2023/04/10 09:35:24;;;;;;;;;;;;;;;;;;5073069;28;20288;-71
2023/04/10 09:38:27;;;;;;;;;;;;;;;;;;5073204;28;19959;-70
2023/04/10 09:41:30;;;;;;;;;;;;;;;;;;5073185;28;20335;-68
2023/04/10 09:44:33;;;;;;;;;;;;;;;;;;5073081;28;19923;-68
2023/04/10 09:47:37;;;;;;;;;;;;;;;;;;5073147;28;19975;-68
2023/04/10 09:50:40;;;;;;;;;;;;;;;;;;5073054;28;20431;-68
2023/04/10 09:53:43;;;;;;;;;;;;;;;;;;5073128;28;19919;-67
2023/04/10 09:56:46;;;;;;;;;;;;;;;;;;5073083;28;19927;-67
2023/04/10 09:59:49;;;;;;;;;;;;;;;;;;5072791;28;19947;-68
2023/04/10 10:02:52;;;;;;;;;;;;;;;;;;5073204;28;20379;-68
2023/04/10 10:05:55;;;;;;;;;;;;;;;;;;5072950;28;20058;-67
2023/04/10 10:08:58;;;;;;;;;;;;;;;;;;5072705;28;19919;-67
2023/04/10 10:12:02;;;;;;;;;;;;;;;;;;5072398;28;19993;-71
2023/04/10 10:15:05;;;;;;;;;;;;;;;;;;5072775;28;20288;-71
2023/04/10 10:18:09;;;;;;;;;;;;;;;;;;5071345;28;19955;-71
2023/04/10 10:21:12;;;;;;;;;;;;;;;;;;5072792;28;20371;-71
2023/04/10 10:24:15;;;;;;;;;;;;;;;;;;5072699;28;20288;-72
2023/04/10 10:27:18;;;;;;;;;;;;;;;;;;5083557;28;19919;-71
2023/04/10 10:30:21;;;;;;;;;;;;;;;;;;5072556;28;19966;-71
2023/04/10 10:33:24;;;;;;;;;;;;;;;;;;5072689;28;19920;-70
2023/04/10 10:36:27;;;;;;;;;;;;;;;;;;5072960;28;19932;-71
2023/04/10 10:39:30;;;;;;;;;;;;;;;;;;5072590;28;19945;-72
2023/04/10 10:42:33;;;;;;;;;;;;;;;;;;5072928;28;19919;-74
2023/04/10 10:45:36;;;;;;;;;;;;;;;;;;5072523;28;19919;-72
2023/04/10 10:48:40;;;;;;;;;;;;;;;;;;5073738;28;19998;-71
2023/04/10 10:51:43;;;;;;;;;;;;;;;;;;5076142;28;19970;-70
2023/04/10 10:54:46;;;;;;;;;;;;;;;;;;5076210;28;19924;-72
2023/04/10 10:57:50;;;;;;;;;;;;;;;;;;5075860;28;20348;-72
2023/04/10 11:00:56;;;;;;;;;;;;;;;;;;5076103;28;20339;-72
2023/04/10 11:04:00;;;;;;;;;;;;;;;;;;5075975;28;19927;-71
2023/04/10 11:07:03;;;;;;;;;;;;;;;;;;5075914;28;19920;-72
2023/04/10 11:10:05;;;;;;;;;;;;;;;;;;5076143;28;19920;-73
2023/04/10 11:13:08;;;;;;;;;;;;;;;;;;5075777;28;19919;-73
2023/04/10 11:16:11;;;;;;;;;;;;;;;;;;5075890;28;20372;-73
2023/04/10 11:19:16;;;;;;;;;;;;;;;;;;5075709;28;20280;-72
2023/04/10 11:22:19;;;;;;;;;;;;;;;;;;5075779;28;19919;-73
2023/04/10 11:25:22;;;;;;;;;;;;;;;;;;5075515;28;20395;-71
2023/04/10 11:28:25;;;;;;;;;;;;;;;;;;5075543;28;19997;-72
2023/04/10 11:31:28;;;;;;;;;;;;;;;;;;5075421;28;20388;-72
2023/04/10 11:34:32;;;;;;;;;;;;;;;;;;5075532;28;19929;-73
2023/04/10 11:37:35;;;;;;;;;;;;;;;;;;5075573;28;20277;-72
2023/04/10 11:40:38;;;;;;;;;;;;;;;;;;5075568;28;19920;-72
2023/04/10 11:43:41;;;;;;;;;;;;;;;;;;5075217;28;19958;-72
2023/04/10 11:46:49;;;;;;;;;;;;;;;;;;5075219;28;19928;-74
2023/04/10 11:49:54;;;;;;;;;;;;;;;;;;5075080;28;20419;-71
2023/04/10 11:52:57;;;;;;;;;;;;;;;;;;5074988;28;20331;-72
2023/04/10 11:56:00;;;;;;;;;;;;;;;;;;5075005;28;19923;-72
2023/04/10 11:59:08;;;;;;;;;;;;;;;;;;5074490;28;20303;-70
2023/04/10 12:02:13;;;;;;;;;;;;;;;;;;5074693;28;20334;-69
2023/04/10 12:05:21;;;;;;;;;;;;;;;;;;5074752;28;19920;-71
2023/04/10 12:08:24;;;;;;;;;;;;;;;;;;5074611;28;19966;-73
2023/04/10 12:11:27;;;;;;;;;;;;;;;;;;5074713;28;19919;-71
2023/04/10 12:14:34;;;;;;;;;;;;;;;;;;5074539;28;19990;-76
2023/04/10 12:17:37;;;;;;;;;;;;;;;;;;5074579;28;19919;-74
2023/04/10 12:20:39;;;;;;;;;;;;;;;;;;5074541;28;19953;-71
2023/04/10 12:23:43;;;;;;;;;;;;;;;;;;5074334;28;19919;-74
2023/04/10 12:26:46;;;;;;;;;;;;;;;;;;5074456;28;19919;-71
2023/04/10 12:29:53;;;;;;;;;;;;;;;;;;5074322;28;20387;-72
2023/04/10 12:32:56;;;;;;;;;;;;;;;;;;5074302;28;19919;-70
2023/04/10 12:35:59;;;;;;;;;;;;;;;;;;5074214;28;19924;-68
2023/04/10 12:39:02;;;;;;;;;;;;;;;;;;5074251;28;20288;-69
2023/04/10 12:42:05;;;;;;;;;;;;;;;;;;5074124;28;19959;-68
2023/04/10 12:45:09;;;;;;;;;;;;;;;;;;5073843;28;19959;-68
2023/04/10 12:48:12;;;;;;;;;;;;;;;;;;5073943;28;19924;-70
2023/04/10 12:51:15;;;;;;;;;;;;;;;;;;5073351;28;19967;-69
2023/04/10 12:54:17;;;;;;;;;;;;;;;;;;5073734;28;20351;-68
2023/04/10 12:57:20;;;;;;;;;;;;;;;;;;5073810;28;19919;-69
2023/04/10 13:00:24;;;;;;;;;;;;;;;;;;5073626;28;19970;-68
2023/04/10 13:03:27;;;;;;;;;;;;;;;;;;5073776;28;19920;-68
2023/04/10 13:06:31;;;;;;;;;;;;;;;;;;5073856;28;19919;-69
2023/04/10 13:09:33;;;;;;;;;;;;;;;;;;5073581;28;20012;-71
2023/04/10 13:12:37;;;;;;;;;;;;;;;;;;5073180;28;20348;-66
2023/04/10 13:15:40;;;;;;;;;;;;;;;;;;5073578;28;20403;-66
2023/04/10 13:18:43;;;;;;;;;;;;;;;;;;5073505;28;20327;-68
2023/04/10 13:21:46;;;;;;;;;;;;;;;;;;5073386;28;19920;-69
2023/04/10 13:24:49;;;;;;;;;;;;;;;;;;5073341;28;19919;-68
2023/04/10 13:27:51;;;;;;;;;;;;;;;;;;5073583;28;20296;-70
2023/04/10 13:30:56;;;;;;;;;;;;;;;;;;5059804;28;19958;-70
2023/04/10 13:33:59;;;;;;;;;;;;;;;;;;5072881;28;20006;-67
2023/04/10 13:37:02;;;;;;;;;;;;;;;;;;5072906;28;19939;-70
2023/04/10 13:40:05;;;;;;;;;;;;;;;;;;5073224;28;19959;-71
2023/04/10 13:43:07;;;;;;;;;;;;;;;;;;5072883;28;19923;-72
2023/04/10 13:46:10;;;;;;;;;;;;;;;;;;5071683;28;19934;-72
2023/04/10 13:49:18;;;;;;;;;;;;;;;;;;5073137;28;19967;-72
2023/04/10 13:52:21;;;;;;;;;;;;;;;;;;5071067;28;19919;-72
2023/04/10 13:55:24;;;;;;;;;;;;;;;;;;5071912;28;19927;-70
2023/04/10 13:58:30;;;;;;;;;;;;;;;;;;5072164;28;19974;-72
2023/04/10 14:01:33;;;;;;;;;;;;;;;;;;5072377;28;19920;-71
2023/04/10 14:04:36;;;;;;;;;;;;;;;;;;5072706;28;19970;-71
2023/04/10 14:07:39;;;;;;;;;;;;;;;;;;5060936;28;19963;-72
2023/04/10 14:10:42;;;;;;;;;;;;;;;;;;5072776;28;20288;-69
2023/04/10 14:17:12;;;;;;;;;;;;;;;;;;5073061;28;20419;-70
2023/04/10 14:20:15;;;;;;;;;;;;;;;;;;5060302;28;20015;-70
2023/04/10 14:23:19;;;;;;;;;;;;;;;;;;5061146;28;19981;-70
2023/04/10 14:26:22;;;;;;;;;;;;;;;;;;5076640;28;19920;-70
2023/04/10 14:29:25;;;;;;;;;;;;;;;;;;5076411;28;19919;-70
2023/04/10 14:32:28;;;;;;;;;;;;;;;;;;5076288;28;20379;-70
2023/04/10 14:35:31;;;;;;;;;;;;;;;;;;5076234;28;20069;-70
2023/04/10 14:38:35;;;;;;;;;;;;;;;;;;5076299;28;19963;-70
2023/04/10 14:41:38;;;;;;;;;;;;;;;;;;5076222;28;19970;-70
2023/04/10 14:44:41;;;;;;;;;;;;;;;;;;5074145;28;19966;-71
2023/04/10 14:47:44;;;;;;;;;;;;;;;;;;5076318;28;19959;-70
2023/04/10 14:50:48;;;;;;;;;;;;;;;;;;5075960;28;19959;-70
2023/04/10 14:53:50;;;;;;;;;;;;;;;;;;5076260;28;19920;-71
2023/04/10 14:56:55;;;;;;;;;;;;;;;;;;5075838;28;19923;-71
2023/04/10 15:00:00;;;;;;;;;;;;;;;;;;5076063;28;19927;-71
2023/04/10 15:03:04;;;;;;;;;;;;;;;;;;5075863;28;19919;-71
2023/04/10 15:06:08;;;;;;;;;;;;;;;;;;5075749;28;19920;-70
2023/04/10 15:09:11;;;;;;;;;;;;;;;;;;5075742;28;20280;-71
2023/04/10 15:12:14;;;;;;;;;;;;;;;;;;5075466;28;19919;-70
2023/04/10 15:15:17;;;;;;;;;;;;;;;;;;5075735;28;20031;-73
2023/04/10 15:18:20;;;;;;;;;;;;;;;;;;5075623;28;19923;-71
2023/04/10 15:21:23;;;;;;;;;;;;;;;;;;5075528;28;19975;-71
2023/04/10 15:24:26;;;;;;;;;;;;;;;;;;5075710;28;20347;-70
2023/04/10 15:27:30;;;;;;;;;;;;;;;;;;5075634;28;20430;-70
2023/04/10 15:30:33;;;;;;;;;;;;;;;;;;5075639;28;19920;-70
2023/04/10 15:33:38;;;;;;;;;;;;;;;;;;5062813;28;20450;-69
2023/04/10 15:36:41;;;;;;;;;;;;;;;;;;5075318;28;19962;-70
2023/04/10 15:39:44;;;;;;;;;;;;;;;;;;5075191;28;19958;-70
2023/04/10 15:42:47;;;;;;;;;;;;;;;;;;5075076;28;20382;-71
2023/04/10 15:45:50;;;;;;;;;;;;;;;;;;5075118;28;19966;-71
2023/04/10 15:48:53;;;;;;;;;;;;;;;;;;5075358;28;20429;-72
2023/04/10 15:51:56;;;;;;;;;;;;;;;;;;5074954;28;19919;-71
2023/04/10 15:54:59;;;;;;;;;;;;;;;;;;5074884;28;19986;-71
2023/04/10 15:58:02;;;;;;;;;;;;;;;;;;5074711;28;19977;-71
2023/04/10 16:01:06;;;;;;;;;;;;;;;;;;5074903;28;19919;-70
2023/04/10 16:04:09;;;;;;;;;;;;;;;;;;5074830;28;19939;-70
2023/04/10 16:07:12;;;;;;;;;;;;;;;;;;5074659;28;19923;-71
2023/04/10 16:10:15;;;;;;;;;;;;;;;;;;5074640;28;19919;-70
2023/04/10 16:13:18;;;;;;;;;;;;;;;;;;5074584;28;20383;-69
2023/04/10 16:16:27;;;;;;;;;;;;;;;;;;5074231;28;19978;-69
2023/04/10 16:19:31;;;;;;;;;;;;;;;;;;5073810;28;19966;-69
2023/04/10 16:22:35;;;;;;;;;;;;;;;;;;5073952;28;19959;-69
2023/04/10 16:25:39;;;;;;;;;;;;;;;;;;5074022;28;20010;-69
2023/04/10 16:28:42;;;;;;;;;;;;;;;;;;5073911;28;19920;-69
2023/04/10 16:31:45;;;;;;;;;;;;;;;;;;5074286;28;20264;-69
2023/04/10 16:34:48;;;;;;;;;;;;;;;;;;5074069;28;20114;-70
2023/04/10 16:37:51;;;;;;;;;;;;;;;;;;5074080;28;19919;-70
2023/04/10 16:40:54;;;;;;;;;;;;;;;;;;5070642;28;19966;-70
2023/04/10 16:48:07;;;;;;;;;;;;;;;;;;5073181;28;20006;-70
2023/04/10 16:51:16;;;;;;;;;;;;;;;;;;5073778;28;19967;-71
2023/04/10 16:54:19;;;;;;;;;;;;;;;;;;5073743;28;20404;-71
2023/04/10 16:58:14;;;;;;;;;;;;;;;;;;5063535;28;20012;-70
2023/04/10 17:01:23;;;;;;;;;;;;;;;;;;5074011;28;19967;-69
2023/04/10 17:04:39;;;;;;;;;;;;;;;;;;5072943;28;19919;-70
2023/04/10 17:07:43;;;;;;;;;;;;;;;;;;5073658;28;20411;-70
2023/04/10 17:10:46;;;;;;;;;;;;;;;;;;5073455;28;19973;-71
2023/04/10 17:13:49;;;;;;;;;;;;;;;;;;5073337;28;19961;-70
2023/04/10 17:16:52;;;;;;;;;;;;;;;;;;5073342;28;19923;-71
2023/04/10 17:19:55;;;;;;;;;;;;;;;;;;5073232;28;20292;-72
2023/04/10 17:22:58;;;;;;;;;;;;;;;;;;5073174;28;19919;-70
2023/04/10 17:26:04;;;;;;;;;;;;;;;;;;5073090;28;19919;-72
2023/04/10 17:29:07;;;;;;;;;;;;;;;;;;5073076;28;19919;-70
2023/04/10 17:32:10;;;;;;;;;;;;;;;;;;5073144;28;19969;-75
2023/04/10 17:35:16;;;;;;;;;;;;;;;;;;5073107;28;19924;-74
2023/04/10 17:38:19;;;;;;;;;;;;;;;;;;5073126;28;19918;-81
2023/04/10 17:41:22;;;;;;;;;;;;;;;;;;5073030;28;20342;-77
2023/04/10 17:44:25;;;;;;;;;;;;;;;;;;5072945;28;19918;-76
2023/04/10 17:47:28;;;;;;;;;;;;;;;;;;5073174;28;19923;-74
2023/04/10 17:50:31;;;;;;;;;;;;;;;;;;5073157;28;20013;-74
2023/04/10 17:53:34;;;;;;;;;;;;;;;;;;5072227;28;19966;-73
2023/04/10 17:56:45;;;;;;;;;;;;;;;;;;5072230;28;20291;-75
2023/04/10 17:59:48;;;;;;;;;;;;;;;;;;5077087;28;19974;-77
2023/04/10 18:02:56;;;;;;;;;;;;;;;;;;5077072;28;19919;-81
2023/04/10 18:05:59;;;;;;;;;;;;;;;;;;5077237;28;19923;-81
2023/04/10 18:09:02;;;;;;;;;;;;;;;;;;5076926;28;20002;-78
2023/04/10 18:12:05;;;;;;;;;;;;;;;;;;5076886;28;19919;-76
2023/04/10 18:15:08;;;;;;;;;;;;;;;;;;5076783;28;19922;-82
2023/04/10 18:18:10;;;;;;;;;;;;;;;;;;5075833;28;19920;-77
2023/04/10 18:21:14;;;;;;;;;;;;;;;;;;5076723;28;19919;-74
2023/04/10 18:24:17;;;;;;;;;;;;;;;;;;5076588;28;19919;-75
2023/04/10 18:27:20;;;;;;;;;;;;;;;;;;5076466;28;19923;-79
2023/04/10 18:30:22;;;;;;;;;;;;;;;;;;5076471;28;19935;-77
2023/04/10 18:33:25;;;;;;;;;;;;;;;;;;5076459;28;19966;-68
2023/04/10 18:36:28;;;;;;;;;;;;;;;;;;5076486;28;19922;-79
2023/04/10 18:39:31;;;;;;;;;;;;;;;;;;5076386;28;19978;-79
2023/04/10 18:42:34;;;;;;;;;;;;;;;;;;5076671;28;19921;-81
2023/04/10 18:45:38;;;;;;;;;;;;;;;;;;5076218;28;19970;-81
2023/04/10 18:48:45;;;;;;;;;;;;;;;;;;5076221;28;19965;-79
2023/04/10 18:51:48;;;;;;;;;;;;;;;;;;5076117;28;20441;-79
2023/04/10 18:54:53;;;;;;;;;;;;;;;;;;5076244;28;20387;-79
2023/04/10 18:57:56;;;;;;;;;;;;;;;;;;5075902;28;20044;-80
2023/04/10 19:01:00;;;;;;;;;;;;;;;;;;5063855;28;19935;-80
2023/04/10 19:04:03;;;;;;;;;;;;;;;;;;5075808;28;20391;-82
2023/04/10 19:07:05;;;;;;;;;;;;;;;;;;5063724;28;20050;-81
2023/04/10 19:10:08;;;;;;;;;;;;;;;;;;5075211;28;19920;-80
2023/04/10 19:13:13;;;;;;;;;;;;;;;;;;5076008;28;20340;-78
2023/04/10 19:16:18;;;;;;;;;;;;;;;;;;5075655;28;19959;-76
2023/04/10 19:19:21;;;;;;;;;;;;;;;;;;5076118;28;19970;-79
2023/04/10 19:22:26;;;;;;;;;;;;;;;;;;5075655;28;20009;-81
2023/04/10 19:25:29;;;;;;;;;;;;;;;;;;5075668;28;20413;-81
2023/04/10 19:28:33;;;;;;;;;;;;;;;;;;5075549;28;19924;-81
2023/04/10 19:31:36;;;;;;;;;;;;;;;;;;5075861;28;19966;-81
2023/04/10 19:34:39;;;;;;;;;;;;;;;;;;5075269;28;19931;-80
2023/04/10 19:37:43;;;;;;;;;;;;;;;;;;5075628;28;19955;-82
2023/04/10 19:40:46;;;;;;;;;;;;;;;;;;5075266;28;19919;-81
2023/04/10 19:43:51;;;;;;;;;;;;;;;;;;5075243;28;20505;-78
2023/04/10 19:46:56;;;;;;;;;;;;;;;;;;5075113;28;19920;-79
2023/04/10 19:49:59;;;;;;;;;;;;;;;;;;5075007;28;19923;-79
2023/04/10 19:53:03;;;;;;;;;;;;;;;;;;5075025;28;19920;-80
2023/04/10 19:56:05;;;;;;;;;;;;;;;;;;5074997;28;19923;-80
2023/04/10 19:59:08;;;;;;;;;;;;;;;;;;5074656;28;19982;-79
2023/04/10 20:02:14;;;;;;;;;;;;;;;;;;5074798;28;20012;-77
2023/04/10 20:05:17;;;;;;;;;;;;;;;;;;5074795;28;19959;-77
2023/04/10 20:08:20;;;;;;;;;;;;;;;;;;5074885;28;20372;-77
2023/04/10 20:11:29;;;;;;;;;;;;;;;;;;5074634;28;19979;-77
2023/04/10 20:14:32;;;;;;;;;;;;;;;;;;5074501;28;19919;-77
2023/04/10 20:17:37;;;;;;;;;;;;;;;;;;5074452;28;19935;-77
2023/04/10 20:20:40;;;;;;;;;;;;;;;;;;5073991;28;19971;-77
2023/04/10 20:23:43;;;;;;;;;;;;;;;;;;5074606;28;19958;-77
2023/04/10 20:26:46;;;;;;;;;;;;;;;;;;5074320;28;19919;-77
2023/04/10 20:29:49;;;;;;;;;;;;;;;;;;5074177;28;19966;-78
2023/04/10 20:32:51;;;;;;;;;;;;;;;;;;5074188;28;19919;-77
2023/04/10 20:35:54;;;;;;;;;;;;;;;;;;5074088;28;20410;-78
2023/04/10 20:38:58;;;;;;;;;;;;;;;;;;5073975;28;19920;-78
2023/04/10 20:42:00;;;;;;;;;;;;;;;;;;5073946;28;19989;-79
2023/04/10 20:45:03;;;;;;;;;;;;;;;;;;5074030;28;20339;-80
2023/04/10 20:48:06;;;;;;;;;;;;;;;;;;5074068;28;20330;-79
2023/04/10 20:51:10;;;;;;;;;;;;;;;;;;5073937;28;20008;-79
2023/04/10 20:54:12;;;;;;;;;;;;;;;;;;5074143;28;19919;-79
2023/04/10 20:57:15;;;;;;;;;;;;;;;;;;5073713;28;19969;-77
2023/04/10 21:00:18;;;;;;;;;;;;;;;;;;5074035;28;19932;-78
2023/04/10 21:03:21;;;;;;;;;;;;;;;;;;5073689;28;20015;-79
2023/04/10 21:06:23;;;;;;;;;;;;;;;;;;5073624;28;19919;-78
2023/04/10 21:09:26;;;;;;;;;;;;;;;;;;5073972;28;19946;-79
2023/04/10 21:12:30;;;;;;;;;;;;;;;;;;5073612;28;19924;-78